sensor_id;sensor_type;location;lat;lon;timestamp;P1;durP1;ratioP1;P2;durP2;ratioP2
60030;SDS011;45901;47.600;9.890;2024-03-06T00:00:53;1.30;;;1.00;;
60030;SDS011;45901;47.600;9.890;2024-03-06T00:03:20;1.30;;;1.10;;
60030;SDS011;45901;47.600;9.890;2024-03-06T00:05:47;1.60;;;1.00;;
60030;SDS011;45901;47.600;9.890;2024-03-06T00:08:16;1.10;;;1.00;;
60030;SDS011;45901;47.600;9.890;2024-03-06T00:10:43;2.30;;;1.13;;
60030;SDS011;45901;47.600;9.890;2024-03-06T00:13:12;2.20;;;1.30;;
60030;SDS011;45901;47.600;9.890;2024-03-06T00:15:39;1.77;;;1.20;;
60030;SDS011;45901;47.600;9.890;2024-03-06T00:18:06;1.43;;;1.03;;
60030;SDS011;45901;47.600;9.890;2024-03-06T00:20:34;1.30;;;1.10;;
60030;SDS011;45901;47.600;9.890;2024-03-06T00:23:02;1.87;;;1.37;;
60030;SDS011;45901;47.600;9.890;2024-03-06T00:25:30;1.50;;;1.30;;
60030;SDS011;45901;47.600;9.890;2024-03-06T00:27:58;1.80;;;1.40;;
60030;SDS011;45901;47.600;9.890;2024-03-06T00:30:25;2.40;;;1.53;;
60030;SDS011;45901;47.600;9.890;2024-03-06T00:32:52;1.80;;;1.30;;
60030;SDS011;45901;47.600;9.890;2024-03-06T00:35:19;1.67;;;1.53;;
60030;SDS011;45901;47.600;9.890;2024-03-06T00:37:47;2.60;;;1.70;;
60030;SDS011;45901;47.600;9.890;2024-03-06T00:40:14;2.20;;;1.33;;
60030;SDS011;45901;47.600;9.890;2024-03-06T00:42:42;1.80;;;1.40;;
60030;SDS011;45901;47.600;9.890;2024-03-06T00:45:10;1.80;;;1.40;;
60030;SDS011;45901;47.600;9.890;2024-03-06T00:47:37;2.03;;;1.40;;
60030;SDS011;45901;47.600;9.890;2024-03-06T00:50:05;2.30;;;1.20;;
60030;SDS011;45901;47.600;9.890;2024-03-06T00:52:33;1.73;;;1.37;;
60030;SDS011;45901;47.600;9.890;2024-03-06T00:55:00;2.23;;;1.70;;
60030;SDS011;45901;47.600;9.890;2024-03-06T00:57:27;1.40;;;1.13;;
60030;SDS011;45901;47.600;9.890;2024-03-06T00:59:55;3.13;;;1.73;;
60030;SDS011;45901;47.600;9.890;2024-03-06T01:02:23;2.20;;;1.43;;
60030;SDS011;45901;47.600;9.890;2024-03-06T01:04:50;2.27;;;1.40;;
60030;SDS011;45901;47.600;9.890;2024-03-06T01:07:17;1.67;;;1.40;;
60030;SDS011;45901;47.600;9.890;2024-03-06T01:09:44;2.00;;;1.60;;
60030;SDS011;45901;47.600;9.890;2024-03-06T01:12:12;1.67;;;1.30;;
60030;SDS011;45901;47.600;9.890;2024-03-06T01:14:39;2.57;;;1.80;;
60030;SDS011;45901;47.600;9.890;2024-03-06T01:17:09;2.43;;;1.67;;
60030;SDS011;45901;47.600;9.890;2024-03-06T01:19:36;2.17;;;1.50;;
60030;SDS011;45901;47.600;9.890;2024-03-06T01:22:03;3.27;;;1.73;;
60030;SDS011;45901;47.600;9.890;2024-03-06T01:24:30;2.50;;;1.90;;
60030;SDS011;45901;47.600;9.890;2024-03-06T01:26:57;2.67;;;1.80;;
60030;SDS011;45901;47.600;9.890;2024-03-06T01:29:27;2.07;;;1.67;;
60030;SDS011;45901;47.600;9.890;2024-03-06T01:31:54;3.33;;;2.10;;
60030;SDS011;45901;47.600;9.890;2024-03-06T01:34:23;3.20;;;2.17;;
60030;SDS011;45901;47.600;9.890;2024-03-06T01:36:51;2.87;;;2.03;;
60030;SDS011;45901;47.600;9.890;2024-03-06T01:39:18;3.87;;;2.47;;
60030;SDS011;45901;47.600;9.890;2024-03-06T01:41:46;4.07;;;2.57;;
60030;SDS011;45901;47.600;9.890;2024-03-06T01:44:13;4.03;;;2.30;;
60030;SDS011;45901;47.600;9.890;2024-03-06T01:46:42;4.40;;;2.73;;
60030;SDS011;45901;47.600;9.890;2024-03-06T01:49:10;3.37;;;2.50;;
60030;SDS011;45901;47.600;9.890;2024-03-06T01:51:41;3.30;;;2.50;;
60030;SDS011;45901;47.600;9.890;2024-03-06T01:54:14;5.13;;;2.90;;
60030;SDS011;45901;47.600;9.890;2024-03-06T01:56:44;3.53;;;2.70;;
60030;SDS011;45901;47.600;9.890;2024-03-06T01:59:13;4.53;;;2.93;;
60030;SDS011;45901;47.600;9.890;2024-03-06T02:01:43;3.27;;;2.20;;
60030;SDS011;45901;47.600;9.890;2024-03-06T02:04:12;4.33;;;2.97;;
60030;SDS011;45901;47.600;9.890;2024-03-06T02:06:41;3.97;;;2.67;;
60030;SDS011;45901;47.600;9.890;2024-03-06T02:09:08;3.83;;;2.77;;
60030;SDS011;45901;47.600;9.890;2024-03-06T02:11:36;3.57;;;2.60;;
60030;SDS011;45901;47.600;9.890;2024-03-06T02:14:03;4.30;;;3.20;;
60030;SDS011;45901;47.600;9.890;2024-03-06T02:16:34;3.53;;;2.60;;
60030;SDS011;45901;47.600;9.890;2024-03-06T02:19:04;3.80;;;2.73;;
60030;SDS011;45901;47.600;9.890;2024-03-06T02:21:32;3.50;;;2.63;;
60030;SDS011;45901;47.600;9.890;2024-03-06T02:24:00;3.40;;;2.60;;
60030;SDS011;45901;47.600;9.890;2024-03-06T02:26:27;3.47;;;2.73;;
60030;SDS011;45901;47.600;9.890;2024-03-06T02:28:55;3.20;;;2.20;;
60030;SDS011;45901;47.600;9.890;2024-03-06T02:31:23;3.80;;;2.60;;
60030;SDS011;45901;47.600;9.890;2024-03-06T02:33:50;4.00;;;2.70;;
60030;SDS011;45901;47.600;9.890;2024-03-06T02:36:17;3.40;;;2.43;;
60030;SDS011;45901;47.600;9.890;2024-03-06T02:38:46;3.37;;;2.30;;
60030;SDS011;45901;47.600;9.890;2024-03-06T02:41:14;3.57;;;2.67;;
60030;SDS011;45901;47.600;9.890;2024-03-06T02:43:41;3.47;;;2.67;;
60030;SDS011;45901;47.600;9.890;2024-03-06T02:46:08;3.13;;;2.47;;
60030;SDS011;45901;47.600;9.890;2024-03-06T02:48:36;4.27;;;2.60;;
60030;SDS011;45901;47.600;9.890;2024-03-06T02:51:03;4.20;;;2.53;;
60030;SDS011;45901;47.600;9.890;2024-03-06T02:53:30;3.37;;;2.40;;
60030;SDS011;45901;47.600;9.890;2024-03-06T02:55:59;3.63;;;2.70;;
60030;SDS011;45901;47.600;9.890;2024-03-06T02:58:26;3.57;;;2.40;;
60030;SDS011;45901;47.600;9.890;2024-03-06T03:00:56;3.67;;;2.70;;
60030;SDS011;45901;47.600;9.890;2024-03-06T03:03:23;3.97;;;2.67;;
60030;SDS011;45901;47.600;9.890;2024-03-06T03:05:51;3.20;;;2.33;;
60030;SDS011;45901;47.600;9.890;2024-03-06T03:08:18;3.73;;;2.40;;
60030;SDS011;45901;47.600;9.890;2024-03-06T03:10:45;3.70;;;2.50;;
60030;SDS011;45901;47.600;9.890;2024-03-06T03:13:14;4.13;;;2.80;;
60030;SDS011;45901;47.600;9.890;2024-03-06T03:15:41;3.23;;;2.40;;
60030;SDS011;45901;47.600;9.890;2024-03-06T03:18:09;4.53;;;2.87;;
60030;SDS011;45901;47.600;9.890;2024-03-06T03:20:36;3.83;;;2.80;;
60030;SDS011;45901;47.600;9.890;2024-03-06T03:23:03;3.77;;;2.70;;
60030;SDS011;45901;47.600;9.890;2024-03-06T03:25:31;4.30;;;2.37;;
60030;SDS011;45901;47.600;9.890;2024-03-06T03:27:59;3.80;;;2.50;;
60030;SDS011;45901;47.600;9.890;2024-03-06T03:30:28;4.07;;;2.60;;
60030;SDS011;45901;47.600;9.890;2024-03-06T03:32:55;4.10;;;2.50;;
60030;SDS011;45901;47.600;9.890;2024-03-06T03:35:22;4.33;;;2.93;;
60030;SDS011;45901;47.600;9.890;2024-03-06T03:37:50;3.77;;;2.70;;
60030;SDS011;45901;47.600;9.890;2024-03-06T03:40:18;2.80;;;2.10;;
60030;SDS011;45901;47.600;9.890;2024-03-06T03:42:45;3.30;;;2.40;;
60030;SDS011;45901;47.600;9.890;2024-03-06T03:45:12;3.57;;;2.33;;
60030;SDS011;45901;47.600;9.890;2024-03-06T03:47:41;2.47;;;2.00;;
60030;SDS011;45901;47.600;9.890;2024-03-06T03:50:09;3.63;;;2.43;;
60030;SDS011;45901;47.600;9.890;2024-03-06T03:52:36;3.90;;;2.07;;
60030;SDS011;45901;47.600;9.890;2024-03-06T03:55:06;3.07;;;2.03;;
60030;SDS011;45901;47.600;9.890;2024-03-06T03:57:34;3.23;;;2.00;;
60030;SDS011;45901;47.600;9.890;2024-03-06T04:00:01;2.67;;;2.03;;
60030;SDS011;45901;47.600;9.890;2024-03-06T04:02:36;3.90;;;2.17;;
60030;SDS011;45901;47.600;9.890;2024-03-06T04:05:06;2.87;;;2.00;;
60030;SDS011;45901;47.600;9.890;2024-03-06T04:07:35;4.20;;;2.70;;
60030;SDS011;45901;47.600;9.890;2024-03-06T04:10:02;4.20;;;2.77;;
60030;SDS011;45901;47.600;9.890;2024-03-06T04:12:30;3.43;;;2.57;;
60030;SDS011;45901;47.600;9.890;2024-03-06T04:14:58;4.03;;;2.73;;
60030;SDS011;45901;47.600;9.890;2024-03-06T04:17:25;3.57;;;2.50;;
60030;SDS011;45901;47.600;9.890;2024-03-06T04:19:52;3.10;;;2.10;;
60030;SDS011;45901;47.600;9.890;2024-03-06T04:22:22;3.73;;;2.53;;
60030;SDS011;45901;47.600;9.890;2024-03-06T04:24:49;3.47;;;2.10;;
60030;SDS011;45901;47.600;9.890;2024-03-06T04:27:16;3.77;;;2.70;;
60030;SDS011;45901;47.600;9.890;2024-03-06T04:29:44;4.67;;;2.83;;
60030;SDS011;45901;47.600;9.890;2024-03-06T04:32:11;4.03;;;2.63;;
60030;SDS011;45901;47.600;9.890;2024-03-06T04:34:38;3.97;;;2.83;;
60030;SDS011;45901;47.600;9.890;2024-03-06T04:37:05;4.47;;;3.13;;
60030;SDS011;45901;47.600;9.890;2024-03-06T04:39:34;4.43;;;2.70;;
60030;SDS011;45901;47.600;9.890;2024-03-06T04:42:01;4.80;;;2.50;;
60030;SDS011;45901;47.600;9.890;2024-03-06T04:44:28;3.27;;;2.57;;
60030;SDS011;45901;47.600;9.890;2024-03-06T04:46:59;2.60;;;2.07;;
60030;SDS011;45901;47.600;9.890;2024-03-06T04:49:26;2.43;;;1.87;;
60030;SDS011;45901;47.600;9.890;2024-03-06T04:51:53;3.17;;;2.23;;
60030;SDS011;45901;47.600;9.890;2024-03-06T04:54:21;3.57;;;2.27;;
60030;SDS011;45901;47.600;9.890;2024-03-06T04:56:49;3.27;;;2.20;;
60030;SDS011;45901;47.600;9.890;2024-03-06T04:59:16;3.30;;;2.53;;
60030;SDS011;45901;47.600;9.890;2024-03-06T05:01:43;4.03;;;2.53;;
60030;SDS011;45901;47.600;9.890;2024-03-06T05:04:10;4.90;;;3.30;;
60030;SDS011;45901;47.600;9.890;2024-03-06T05:06:38;4.07;;;2.90;;
60030;SDS011;45901;47.600;9.890;2024-03-06T05:09:05;4.33;;;2.90;;
60030;SDS011;45901;47.600;9.890;2024-03-06T05:11:36;4.67;;;3.27;;
60030;SDS011;45901;47.600;9.890;2024-03-06T05:14:05;3.50;;;2.33;;
60030;SDS011;45901;47.600;9.890;2024-03-06T05:16:32;2.67;;;1.70;;
60030;SDS011;45901;47.600;9.890;2024-03-06T05:19:00;4.10;;;1.63;;
60030;SDS011;45901;47.600;9.890;2024-03-06T05:21:27;2.30;;;1.53;;
60030;SDS011;45901;47.600;9.890;2024-03-06T05:23:54;2.23;;;1.43;;
60030;SDS011;45901;47.600;9.890;2024-03-06T05:26:22;1.80;;;1.40;;
60030;SDS011;45901;47.600;9.890;2024-03-06T05:28:49;2.07;;;1.50;;
60030;SDS011;45901;47.600;9.890;2024-03-06T05:31:18;2.33;;;1.50;;
60030;SDS011;45901;47.600;9.890;2024-03-06T05:33:47;1.90;;;1.70;;
60030;SDS011;45901;47.600;9.890;2024-03-06T05:36:15;2.43;;;1.70;;
60030;SDS011;45901;47.600;9.890;2024-03-06T05:38:43;2.50;;;1.90;;
60030;SDS011;45901;47.600;9.890;2024-03-06T05:41:11;3.37;;;1.90;;
60030;SDS011;45901;47.600;9.890;2024-03-06T05:43:38;3.20;;;2.40;;
60030;SDS011;45901;47.600;9.890;2024-03-06T05:46:06;3.50;;;2.40;;
60030;SDS011;45901;47.600;9.890;2024-03-06T05:48:34;3.87;;;2.23;;
60030;SDS011;45901;47.600;9.890;2024-03-06T05:51:02;5.33;;;2.27;;
60030;SDS011;45901;47.600;9.890;2024-03-06T05:53:29;2.50;;;1.80;;
60030;SDS011;45901;47.600;9.890;2024-03-06T05:55:56;3.43;;;2.20;;
60030;SDS011;45901;47.600;9.890;2024-03-06T05:58:23;3.47;;;2.40;;
60030;SDS011;45901;47.600;9.890;2024-03-06T06:00:50;3.30;;;2.60;;
60030;SDS011;45901;47.600;9.890;2024-03-06T06:03:18;3.10;;;2.17;;
60030;SDS011;45901;47.600;9.890;2024-03-06T06:05:46;2.87;;;2.30;;
60030;SDS011;45901;47.600;9.890;2024-03-06T06:08:13;3.57;;;2.80;;
60030;SDS011;45901;47.600;9.890;2024-03-06T06:10:40;4.87;;;2.90;;
60030;SDS011;45901;47.600;9.890;2024-03-06T06:13:08;4.17;;;3.00;;
60030;SDS011;45901;47.600;9.890;2024-03-06T06:15:35;3.10;;;2.50;;
60030;SDS011;45901;47.600;9.890;2024-03-06T06:18:02;4.07;;;3.10;;
60030;SDS011;45901;47.600;9.890;2024-03-06T06:20:30;4.67;;;3.47;;
60030;SDS011;45901;47.600;9.890;2024-03-06T06:22:59;6.57;;;4.30;;
60030;SDS011;45901;47.600;9.890;2024-03-06T06:25:27;4.53;;;3.07;;
60030;SDS011;45901;47.600;9.890;2024-03-06T06:27:54;4.90;;;3.37;;
60030;SDS011;45901;47.600;9.890;2024-03-06T06:30:21;4.43;;;3.60;;
60030;SDS011;45901;47.600;9.890;2024-03-06T06:32:48;4.17;;;3.07;;
60030;SDS011;45901;47.600;9.890;2024-03-06T06:35:15;3.73;;;2.57;;
60030;SDS011;45901;47.600;9.890;2024-03-06T06:37:43;4.50;;;3.07;;
60030;SDS011;45901;47.600;9.890;2024-03-06T06:40:13;5.30;;;3.67;;
60030;SDS011;45901;47.600;9.890;2024-03-06T06:42:44;5.20;;;4.03;;
60030;SDS011;45901;47.600;9.890;2024-03-06T06:45:14;5.07;;;3.80;;
60030;SDS011;45901;47.600;9.890;2024-03-06T06:47:42;5.00;;;3.90;;
60030;SDS011;45901;47.600;9.890;2024-03-06T06:50:09;6.30;;;3.40;;
60030;SDS011;45901;47.600;9.890;2024-03-06T06:52:37;6.50;;;3.80;;
60030;SDS011;45901;47.600;9.890;2024-03-06T06:55:04;6.97;;;4.40;;
60030;SDS011;45901;47.600;9.890;2024-03-06T06:57:35;6.67;;;4.53;;
60030;SDS011;45901;47.600;9.890;2024-03-06T07:00:03;6.60;;;4.20;;
60030;SDS011;45901;47.600;9.890;2024-03-06T07:02:36;6.40;;;4.10;;
60030;SDS011;45901;47.600;9.890;2024-03-06T07:05:04;7.13;;;4.33;;
60030;SDS011;45901;47.600;9.890;2024-03-06T07:07:31;5.50;;;3.80;;
60030;SDS011;45901;47.600;9.890;2024-03-06T07:09:58;5.03;;;3.70;;
60030;SDS011;45901;47.600;9.890;2024-03-06T07:12:26;4.70;;;3.37;;
60030;SDS011;45901;47.600;9.890;2024-03-06T07:14:54;5.17;;;3.50;;
60030;SDS011;45901;47.600;9.890;2024-03-06T07:17:21;3.70;;;2.50;;
60030;SDS011;45901;47.600;9.890;2024-03-06T07:19:48;4.90;;;3.30;;
60030;SDS011;45901;47.600;9.890;2024-03-06T07:22:18;4.53;;;3.13;;
60030;SDS011;45901;47.600;9.890;2024-03-06T07:24:45;3.47;;;2.60;;
60030;SDS011;45901;47.600;9.890;2024-03-06T07:27:12;4.03;;;2.93;;
60030;SDS011;45901;47.600;9.890;2024-03-06T07:29:39;4.50;;;2.83;;
60030;SDS011;45901;47.600;9.890;2024-03-06T07:32:08;4.27;;;3.00;;
60030;SDS011;45901;47.600;9.890;2024-03-06T07:34:36;4.50;;;3.00;;
60030;SDS011;45901;47.600;9.890;2024-03-06T07:37:03;5.63;;;3.43;;
60030;SDS011;45901;47.600;9.890;2024-03-06T07:39:30;5.70;;;3.73;;
60030;SDS011;45901;47.600;9.890;2024-03-06T07:41:57;6.20;;;4.60;;
60030;SDS011;45901;47.600;9.890;2024-03-06T07:44:24;4.93;;;3.43;;
60030;SDS011;45901;47.600;9.890;2024-03-06T07:46:51;5.23;;;3.93;;
60030;SDS011;45901;47.600;9.890;2024-03-06T07:49:20;5.23;;;3.90;;
60030;SDS011;45901;47.600;9.890;2024-03-06T07:51:48;6.30;;;4.20;;
60030;SDS011;45901;47.600;9.890;2024-03-06T07:54:16;6.53;;;4.23;;
60030;SDS011;45901;47.600;9.890;2024-03-06T07:56:43;6.60;;;5.13;;
60030;SDS011;45901;47.600;9.890;2024-03-06T07:59:11;5.33;;;3.83;;
60030;SDS011;45901;47.600;9.890;2024-03-06T08:01:40;3.73;;;2.80;;
60030;SDS011;45901;47.600;9.890;2024-03-06T08:04:07;3.17;;;1.97;;
60030;SDS011;45901;47.600;9.890;2024-03-06T08:06:36;3.00;;;2.30;;
60030;SDS011;45901;47.600;9.890;2024-03-06T08:09:04;3.53;;;2.23;;
60030;SDS011;45901;47.600;9.890;2024-03-06T08:11:32;3.60;;;1.70;;
60030;SDS011;45901;47.600;9.890;2024-03-06T08:13:59;3.63;;;1.90;;
60030;SDS011;45901;47.600;9.890;2024-03-06T08:16:27;2.90;;;2.03;;
60030;SDS011;45901;47.600;9.890;2024-03-06T08:18:55;2.37;;;1.70;;
60030;SDS011;45901;47.600;9.890;2024-03-06T08:21:24;2.23;;;1.70;;
60030;SDS011;45901;47.600;9.890;2024-03-06T08:23:52;1.13;;;1.00;;
60030;SDS011;45901;47.600;9.890;2024-03-06T08:26:20;1.80;;;1.20;;
60030;SDS011;45901;47.600;9.890;2024-03-06T08:28:48;1.53;;;1.10;;
60030;SDS011;45901;47.600;9.890;2024-03-06T08:31:15;2.77;;;1.67;;
60030;SDS011;45901;47.600;9.890;2024-03-06T08:33:42;2.77;;;1.50;;
60030;SDS011;45901;47.600;9.890;2024-03-06T08:36:10;2.23;;;1.60;;
60030;SDS011;45901;47.600;9.890;2024-03-06T08:38:38;2.43;;;1.73;;
60030;SDS011;45901;47.600;9.890;2024-03-06T08:41:08;2.60;;;1.70;;
60030;SDS011;45901;47.600;9.890;2024-03-06T08:43:35;6.70;;;2.97;;
60030;SDS011;45901;47.600;9.890;2024-03-06T08:46:02;7.17;;;3.10;;
60030;SDS011;45901;47.600;9.890;2024-03-06T08:48:30;4.10;;;2.60;;
60030;SDS011;45901;47.600;9.890;2024-03-06T08:50:57;2.40;;;1.37;;
60030;SDS011;45901;47.600;9.890;2024-03-06T08:53:24;2.70;;;1.80;;
60030;SDS011;45901;47.600;9.890;2024-03-06T08:55:51;3.30;;;1.20;;
60030;SDS011;45901;47.600;9.890;2024-03-06T08:58:20;1.30;;;1.00;;
60030;SDS011;45901;47.600;9.890;2024-03-06T09:00:47;1.83;;;1.13;;
60030;SDS011;45901;47.600;9.890;2024-03-06T09:03:14;1.27;;;1.17;;
60030;SDS011;45901;47.600;9.890;2024-03-06T09:05:42;2.70;;;1.33;;
60030;SDS011;45901;47.600;9.890;2024-03-06T09:08:09;1.83;;;1.50;;
60030;SDS011;45901;47.600;9.890;2024-03-06T09:10:37;1.80;;;1.30;;
60030;SDS011;45901;47.600;9.890;2024-03-06T09:13:05;2.40;;;1.47;;
60030;SDS011;45901;47.600;9.890;2024-03-06T09:15:34;1.67;;;1.10;;
60030;SDS011;45901;47.600;9.890;2024-03-06T09:18:01;2.03;;;1.30;;
60030;SDS011;45901;47.600;9.890;2024-03-06T09:20:28;1.57;;;1.20;;
60030;SDS011;45901;47.600;9.890;2024-03-06T09:22:57;3.37;;;1.50;;
60030;SDS011;45901;47.600;9.890;2024-03-06T09:25:25;2.87;;;1.33;;
60030;SDS011;45901;47.600;9.890;2024-03-06T09:27:52;5.60;;;1.23;;
60030;SDS011;45901;47.600;9.890;2024-03-06T09:30:19;2.60;;;1.43;;
60030;SDS011;45901;47.600;9.890;2024-03-06T09:32:48;3.20;;;1.37;;
60030;SDS011;45901;47.600;9.890;2024-03-06T09:35:16;5.27;;;2.20;;
60030;SDS011;45901;47.600;9.890;2024-03-06T09:37:44;3.73;;;1.80;;
60030;SDS011;45901;47.600;9.890;2024-03-06T09:40:19;7.67;;;3.20;;
60030;SDS011;45901;47.600;9.890;2024-03-06T09:42:48;10.73;;;4.40;;
60030;SDS011;45901;47.600;9.890;2024-03-06T09:45:15;7.80;;;2.97;;
60030;SDS011;45901;47.600;9.890;2024-03-06T09:47:44;16.27;;;6.03;;
60030;SDS011;45901;47.600;9.890;2024-03-06T09:50:16;2.43;;;1.43;;
60030;SDS011;45901;47.600;9.890;2024-03-06T09:52:47;2.60;;;1.00;;
60030;SDS011;45901;47.600;9.890;2024-03-06T09:55:17;4.03;;;1.93;;
60030;SDS011;45901;47.600;9.890;2024-03-06T09:57:44;1.90;;;1.37;;
60030;SDS011;45901;47.600;9.890;2024-03-06T10:00:11;4.23;;;2.03;;
60030;SDS011;45901;47.600;9.890;2024-03-06T10:02:41;2.90;;;1.60;;
60030;SDS011;45901;47.600;9.890;2024-03-06T10:05:20;5.20;;;3.50;;
60030;SDS011;45901;47.600;9.890;2024-03-06T10:07:49;9.77;;;5.63;;
60030;SDS011;45901;47.600;9.890;2024-03-06T10:10:17;7.83;;;4.37;;
60030;SDS011;45901;47.600;9.890;2024-03-06T10:12:45;17.37;;;7.47;;
60030;SDS011;45901;47.600;9.890;2024-03-06T10:15:13;7.13;;;3.83;;
60030;SDS011;45901;47.600;9.890;2024-03-06T10:17:41;6.10;;;2.97;;
60030;SDS011;45901;47.600;9.890;2024-03-06T10:20:18;6.63;;;3.20;;
60030;SDS011;45901;47.600;9.890;2024-03-06T10:22:48;3.50;;;2.40;;
60030;SDS011;45901;47.600;9.890;2024-03-06T10:25:20;3.07;;;1.90;;
60030;SDS011;45901;47.600;9.890;2024-03-06T10:28:02;4.73;;;2.80;;
60030;SDS011;45901;47.600;9.890;2024-03-06T10:30:32;5.97;;;2.60;;
60030;SDS011;45901;47.600;9.890;2024-03-06T10:33:01;4.83;;;2.43;;
60030;SDS011;45901;47.600;9.890;2024-03-06T10:35:31;2.73;;;1.50;;
60030;SDS011;45901;47.600;9.890;2024-03-06T10:37:59;3.87;;;2.10;;
60030;SDS011;45901;47.600;9.890;2024-03-06T10:40:27;4.10;;;2.43;;
60030;SDS011;45901;47.600;9.890;2024-03-06T10:42:59;2.83;;;1.50;;
60030;SDS011;45901;47.600;9.890;2024-03-06T10:45:29;4.93;;;2.70;;
60030;SDS011;45901;47.600;9.890;2024-03-06T10:48:06;5.60;;;2.83;;
60030;SDS011;45901;47.600;9.890;2024-03-06T10:50:38;4.63;;;2.60;;
60030;SDS011;45901;47.600;9.890;2024-03-06T10:53:09;3.40;;;1.90;;
60030;SDS011;45901;47.600;9.890;2024-03-06T10:55:37;2.50;;;1.47;;
60030;SDS011;45901;47.600;9.890;2024-03-06T10:58:05;2.03;;;1.40;;
60030;SDS011;45901;47.600;9.890;2024-03-06T11:00:34;4.80;;;2.73;;
60030;SDS011;45901;47.600;9.890;2024-03-06T11:03:05;0.80;;;0.80;;
60030;SDS011;45901;47.600;9.890;2024-03-06T11:05:34;2.10;;;1.50;;
60030;SDS011;45901;47.600;9.890;2024-03-06T11:08:05;0.93;;;0.67;;
60030;SDS011;45901;47.600;9.890;2024-03-06T11:10:34;1.10;;;1.00;;
60030;SDS011;45901;47.600;9.890;2024-03-06T11:13:03;2.73;;;1.43;;
60030;SDS011;45901;47.600;9.890;2024-03-06T11:15:47;3.50;;;1.90;;
60030;SDS011;45901;47.600;9.890;2024-03-06T11:21:31;3.20;;;1.90;;
60030;SDS011;45901;47.600;9.890;2024-03-06T11:26:47;2.33;;;1.60;;
60030;SDS011;45901;47.600;9.890;2024-03-06T11:29:23;2.20;;;1.53;;
60030;SDS011;45901;47.600;9.890;2024-03-06T11:32:02;1.87;;;1.20;;
60030;SDS011;45901;47.600;9.890;2024-03-06T11:34:33;1.53;;;1.00;;
60030;SDS011;45901;47.600;9.890;2024-03-06T11:37:03;1.50;;;1.17;;
60030;SDS011;45901;47.600;9.890;2024-03-06T11:39:37;2.43;;;1.73;;
60030;SDS011;45901;47.600;9.890;2024-03-06T11:42:06;1.90;;;1.03;;
60030;SDS011;45901;47.600;9.890;2024-03-06T11:44:34;2.07;;;1.30;;
60030;SDS011;45901;47.600;9.890;2024-03-06T11:47:02;3.70;;;2.20;;
60030;SDS011;45901;47.600;9.890;2024-03-06T11:49:33;3.73;;;1.90;;
60030;SDS011;45901;47.600;9.890;2024-03-06T11:52:03;2.10;;;1.50;;
60030;SDS011;45901;47.600;9.890;2024-03-06T11:54:33;3.43;;;2.37;;
60030;SDS011;45901;47.600;9.890;2024-03-06T11:57:02;10.40;;;6.47;;
60030;SDS011;45901;47.600;9.890;2024-03-06T11:59:31;8.33;;;4.90;;
60030;SDS011;45901;47.600;9.890;2024-03-06T12:02:00;3.97;;;2.10;;
60030;SDS011;45901;47.600;9.890;2024-03-06T12:04:29;1.67;;;1.30;;
60030;SDS011;45901;47.600;9.890;2024-03-06T12:06:56;6.47;;;3.97;;
60030;SDS011;45901;47.600;9.890;2024-03-06T12:09:25;4.00;;;2.70;;
60030;SDS011;45901;47.600;9.890;2024-03-06T12:11:52;1.40;;;1.03;;
60030;SDS011;45901;47.600;9.890;2024-03-06T12:14:23;1.10;;;0.90;;
60030;SDS011;45901;47.600;9.890;2024-03-06T12:16:55;1.80;;;1.10;;
60030;SDS011;45901;47.600;9.890;2024-03-06T12:19:23;1.50;;;1.10;;
60030;SDS011;45901;47.600;9.890;2024-03-06T12:21:53;0.60;;;0.57;;
60030;SDS011;45901;47.600;9.890;2024-03-06T12:24:20;1.07;;;0.77;;
60030;SDS011;45901;47.600;9.890;2024-03-06T12:26:57;0.80;;;0.73;;
60030;SDS011;45901;47.600;9.890;2024-03-06T12:29:28;1.00;;;0.80;;
60030;SDS011;45901;47.600;9.890;2024-03-06T12:31:57;1.47;;;1.00;;
60030;SDS011;45901;47.600;9.890;2024-03-06T12:34:25;1.53;;;1.10;;
60030;SDS011;45901;47.600;9.890;2024-03-06T12:36:52;2.20;;;1.73;;
60030;SDS011;45901;47.600;9.890;2024-03-06T12:39:19;1.97;;;1.30;;
60030;SDS011;45901;47.600;9.890;2024-03-06T12:41:48;0.67;;;0.60;;
60030;SDS011;45901;47.600;9.890;2024-03-06T12:44:16;2.17;;;1.30;;
60030;SDS011;45901;47.600;9.890;2024-03-06T12:46:46;3.27;;;1.70;;
60030;SDS011;45901;47.600;9.890;2024-03-06T12:49:14;2.27;;;1.63;;
60030;SDS011;45901;47.600;9.890;2024-03-06T12:51:43;3.77;;;2.40;;
60030;SDS011;45901;47.600;9.890;2024-03-06T12:54:11;4.97;;;2.93;;
60030;SDS011;45901;47.600;9.890;2024-03-06T12:56:38;3.73;;;2.20;;
60030;SDS011;45901;47.600;9.890;2024-03-06T12:59:06;4.33;;;2.40;;
60030;SDS011;45901;47.600;9.890;2024-03-06T13:01:34;4.83;;;2.97;;
60030;SDS011;45901;47.600;9.890;2024-03-06T13:04:03;6.03;;;3.80;;
60030;SDS011;45901;47.600;9.890;2024-03-06T13:06:31;5.03;;;2.63;;
60030;SDS011;45901;47.600;9.890;2024-03-06T13:08:59;2.37;;;1.67;;
60030;SDS011;45901;47.600;9.890;2024-03-06T13:11:26;3.30;;;2.43;;
60030;SDS011;45901;47.600;9.890;2024-03-06T13:13:53;3.63;;;2.03;;
60030;SDS011;45901;47.600;9.890;2024-03-06T13:16:20;2.23;;;1.53;;
60030;SDS011;45901;47.600;9.890;2024-03-06T13:18:48;5.20;;;1.80;;
60030;SDS011;45901;47.600;9.890;2024-03-06T13:21:19;4.17;;;2.50;;
60030;SDS011;45901;47.600;9.890;2024-03-06T13:23:46;3.30;;;1.87;;
60030;SDS011;45901;47.600;9.890;2024-03-06T13:26:14;7.37;;;3.50;;
60030;SDS011;45901;47.600;9.890;2024-03-06T13:28:43;5.77;;;3.43;;
60030;SDS011;45901;47.600;9.890;2024-03-06T13:31:11;9.20;;;4.37;;
60030;SDS011;45901;47.600;9.890;2024-03-06T13:33:38;8.83;;;4.20;;
60030;SDS011;45901;47.600;9.890;2024-03-06T13:36:06;4.93;;;2.93;;
60030;SDS011;45901;47.600;9.890;2024-03-06T13:38:35;5.93;;;3.43;;
60030;SDS011;45901;47.600;9.890;2024-03-06T13:41:02;6.40;;;4.13;;
60030;SDS011;45901;47.600;9.890;2024-03-06T13:43:30;6.63;;;4.20;;
60030;SDS011;45901;47.600;9.890;2024-03-06T13:45:58;13.40;;;7.70;;
60030;SDS011;45901;47.600;9.890;2024-03-06T13:48:25;23.80;;;11.23;;
60030;SDS011;45901;47.600;9.890;2024-03-06T13:50:52;23.47;;;12.13;;
60030;SDS011;45901;47.600;9.890;2024-03-06T13:53:19;11.37;;;5.70;;
60030;SDS011;45901;47.600;9.890;2024-03-06T13:55:48;3.10;;;2.00;;
60030;SDS011;45901;47.600;9.890;2024-03-06T13:58:15;3.03;;;2.03;;
60030;SDS011;45901;47.600;9.890;2024-03-06T14:00:43;2.83;;;2.13;;
60030;SDS011;45901;47.600;9.890;2024-03-06T14:03:10;1.63;;;1.30;;
60030;SDS011;45901;47.600;9.890;2024-03-06T14:05:38;3.87;;;2.50;;
60030;SDS011;45901;47.600;9.890;2024-03-06T14:08:06;8.43;;;4.60;;
60030;SDS011;45901;47.600;9.890;2024-03-06T14:10:37;2.93;;;1.90;;
60030;SDS011;45901;47.600;9.890;2024-03-06T14:13:06;3.00;;;2.10;;
60030;SDS011;45901;47.600;9.890;2024-03-06T14:15:34;2.40;;;1.40;;
60030;SDS011;45901;47.600;9.890;2024-03-06T14:18:01;2.97;;;1.50;;
60030;SDS011;45901;47.600;9.890;2024-03-06T14:20:29;1.40;;;1.10;;
60030;SDS011;45901;47.600;9.890;2024-03-06T14:22:57;4.60;;;2.67;;
60030;SDS011;45901;47.600;9.890;2024-03-06T14:25:24;4.07;;;2.07;;
60030;SDS011;45901;47.600;9.890;2024-03-06T14:27:51;5.53;;;2.10;;
60030;SDS011;45901;47.600;9.890;2024-03-06T14:30:20;4.57;;;2.60;;
60030;SDS011;45901;47.600;9.890;2024-03-06T14:32:47;2.07;;;1.53;;
60030;SDS011;45901;47.600;9.890;2024-03-06T14:35:14;4.83;;;2.63;;
60030;SDS011;45901;47.600;9.890;2024-03-06T14:37:42;5.20;;;3.10;;
60030;SDS011;45901;47.600;9.890;2024-03-06T14:40:09;5.23;;;3.07;;
60030;SDS011;45901;47.600;9.890;2024-03-06T14:42:37;9.13;;;4.23;;
60030;SDS011;45901;47.600;9.890;2024-03-06T14:45:05;6.10;;;3.63;;
60030;SDS011;45901;47.600;9.890;2024-03-06T14:47:36;4.50;;;3.20;;
60030;SDS011;45901;47.600;9.890;2024-03-06T14:50:03;2.27;;;1.53;;
60030;SDS011;45901;47.600;9.890;2024-03-06T14:52:32;2.47;;;1.37;;
60030;SDS011;45901;47.600;9.890;2024-03-06T14:54:59;1.50;;;1.27;;
60030;SDS011;45901;47.600;9.890;2024-03-06T14:57:28;1.30;;;0.90;;
60030;SDS011;45901;47.600;9.890;2024-03-06T14:59:55;0.97;;;0.90;;